Time;durP1;ratioP1;P1;durP2;ratioP2;P2;SDS_P1;SDS_P2;PMS_P1;PMS_P2;Temp;Humidity;BMP_temperature;BMP_pressure;BME280_temperature;BME280_humidity;BME280_pressure;Samples;Min_cycle;Max_cycle;Signal;HPM_P1;HPM_P2
2023/08/15 00:00:28;;;;;;;;;2.25;2.00;;;;;23.11;63.63;100878.13;5018450;28;47500;-69
2023/08/15 00:02:53;;;;;;;;;4.75;3.25;;;;;23.21;63.55;100881.13;5018741;28;45435;-68
2023/08/15 00:05:18;;;;;;;;;7.25;2.00;;;;;23.24;63.87;100889.69;5018838;28;45254;-69
2023/08/15 00:07:44;;;;;;;;;2.33;2.33;;;;;23.04;63.62;100867.34;5018852;28;45535;-69
2023/08/15 00:10:09;;;;;;;;;4.50;3.50;;;;;23.18;63.45;100882.41;5018548;28;46498;-68
2023/08/15 00:12:34;;;;;;;;;4.25;4.25;;;;;23.09;63.04;100859.38;5018644;28;45392;-69
2023/08/15 00:15:00;;;;;;;;;2.25;2.25;;;;;23.24;63.46;100878.00;5018248;28;46691;-69
2023/08/15 00:17:25;;;;;;;;;3.25;2.25;;;;;23.22;63.30;100880.09;5018731;28;45407;-70
2023/08/15 00:19:50;;;;;;;;;4.75;3.50;;;;;23.24;63.38;100884.25;5018658;28;47283;-70
2023/08/15 00:22:17;;;;;;;;;3.00;2.00;;;;;23.05;63.60;100848.16;5017836;28;65491;-69
2023/08/15 00:24:43;;;;;;;;;2.75;2.75;;;;;23.25;63.25;100872.34;5018536;28;45448;-68
2023/08/15 00:27:08;;;;;;;;;3.50;2.00;;;;;23.20;63.67;100866.75;5018739;28;45352;-69
2023/08/15 00:29:34;;;;;;;;;3.00;2.00;;;;;23.21;63.71;100873.84;5018113;28;45684;-68
2023/08/15 00:31:59;;;;;;;;;5.00;3.75;;;;;23.15;63.65;100868.47;5017812;28;45719;-70
2023/08/15 00:34:24;;;;;;;;;4.00;3.75;;;;;23.25;63.11;100885.91;5017887;28;59902;-70
2023/08/15 00:36:50;;;;;;;;;4.33;3.00;;;;;23.25;62.05;100885.91;5018510;28;45276;-70
2023/08/15 00:39:15;;;;;;;;;1.00;1.00;;;;;23.23;61.55;100882.59;5018410;28;45788;-69
2023/08/15 00:41:40;;;;;;;;;5.75;4.00;;;;;23.20;60.86;100880.31;5017736;28;57103;-69
2023/08/15 00:44:06;;;;;;;;;3.25;3.00;;;;;23.24;60.67;100881.53;5018399;28;45282;-70
2023/08/15 00:46:31;;;;;;;;;4.67;4.67;;;;;23.25;60.24;100885.91;5018357;28;45402;-69
2023/08/15 00:48:58;;;;;;;;;3.50;2.75;;;;;23.09;60.48;100859.38;4999568;28;47255;-69
2023/08/15 00:51:25;;;;;;;;;4.00;2.00;;;;;23.05;60.47;100855.44;5017566;28;45522;-68
2023/08/15 00:53:51;;;;;;;;;3.00;3.00;;;;;23.20;60.40;100877.59;5018154;28;45431;-69
2023/08/15 00:56:18;;;;;;;;;4.00;3.67;;;;;23.29;60.11;100891.72;5018128;28;45391;-69
2023/08/15 00:58:44;;;;;;;;;4.25;3.75;;;;;23.29;60.20;100892.56;5017628;28;46636;-69
2023/08/15 01:01:15;;;;;;;;;3.00;2.00;;;;;23.31;60.02;100890.44;5017026;28;65176;-69
2023/08/15 01:03:41;;;;;;;;;4.00;3.00;;;;;23.24;59.64;100872.59;5018107;28;45631;-68
2023/08/15 01:06:07;;;;;;;;;3.25;2.00;;;;;23.33;59.46;100882.06;5017905;28;45507;-70
2023/08/15 01:08:32;;;;;;;;;4.00;4.00;;;;;23.31;59.48;100893.16;5017756;28;46669;-70
2023/08/15 01:10:59;;;;;;;;;3.75;3.25;;;;;23.30;59.48;100894.22;5017855;28;45940;-69
2023/08/15 01:13:48;;;;;;;;;3.50;3.00;;;;;23.30;58.77;100894.22;5017760;28;45602;-69
2023/08/15 01:16:28;;;;;;;;;2.00;2.00;;;;;23.30;59.98;100893.38;5017788;28;45254;-69
2023/08/15 01:19:03;;;;;;;;;4.25;3.00;;;;;23.29;59.49;100889.84;5017695;28;46817;-69
2023/08/15 01:21:34;;;;;;;;;2.00;2.00;;;;;23.28;59.61;100900.91;5017709;28;45309;-68
2023/08/15 01:23:59;;;;;;;;;4.50;2.25;;;;;23.16;58.90;100881.00;5017925;28;45362;-69
2023/08/15 01:26:24;;;;;;;;;4.75;3.50;;;;;23.24;58.66;100889.69;5017681;28;45438;-69
2023/08/15 01:28:50;;;;;;;;;3.75;3.00;;;;;23.23;58.75;100904.31;5017587;28;45643;-68
2023/08/15 01:31:28;;;;;;;;;3.50;3.00;;;;;23.10;58.88;100877.28;5017309;28;45371;-71
2023/08/15 01:34:10;;;;;;;;;2.25;2.00;;;;;23.21;58.72;100895.53;5017635;28;45459;-69
2023/08/15 01:36:47;;;;;;;;;1.25;1.25;;;;;23.22;58.46;100897.19;5017704;28;45439;-69
2023/08/15 01:39:17;;;;;;;;;2.00;2.00;;;;;23.27;58.90;100905.50;5017347;28;45872;-69
2023/08/15 01:41:46;;;;;;;;;2.25;2.25;;;;;23.26;58.94;100905.75;5017307;28;45572;-69
2023/08/15 01:44:13;;;;;;;;;2.50;2.50;;;;;23.22;58.68;100902.63;5017455;28;45439;-69
2023/08/15 01:46:39;;;;;;;;;5.25;4.00;;;;;22.95;58.37;100858.66;5016969;28;45570;-69
2023/08/15 01:49:04;;;;;;;;;3.00;3.00;;;;;23.26;58.29;100916.59;5016932;28;45605;-69
2023/08/15 01:51:30;;;;;;;;;3.00;2.00;;;;;23.28;59.00;100922.63;5016885;28;45367;-69
2023/08/15 01:53:55;;;;;;;;;4.75;2.75;;;;;23.29;58.24;100927.81;4999694;28;45457;-68
2023/08/15 01:56:20;;;;;;;;;4.00;2.00;;;;;23.14;58.87;100907.50;5017452;28;45610;-69
2023/08/15 01:58:46;;;;;;;;;2.00;2.00;;;;;23.22;58.67;100929.75;5016870;28;46532;-69
2023/08/15 02:01:12;;;;;;;;;2.00;2.00;;;;;23.11;58.64;100910.66;5016130;28;45278;-70
2023/08/15 02:03:37;;;;;;;;;3.25;2.50;;;;;23.24;59.02;100941.22;5016920;28;45274;-69
2023/08/15 02:06:03;;;;;;;;;3.25;3.00;;;;;23.20;59.44;100937.28;5017330;28;45412;-70
2023/08/15 02:08:28;;;;;;;;;3.00;3.00;;;;;23.21;59.36;100938.94;5016904;28;46427;-69
2023/08/15 02:10:54;;;;;;;;;2.25;2.25;;;;;23.22;59.24;100940.59;5016736;28;45261;-68
2023/08/15 02:13:19;;;;;;;;;4.50;3.25;;;;;23.23;59.15;100936.03;5017058;28;45340;-69
2023/08/15 02:15:45;;;;;;;;;3.50;3.50;;;;;23.16;59.35;100914.38;4999363;28;45393;-72
2023/08/15 02:18:11;;;;;;;;;4.00;2.75;;;;;23.08;59.35;100905.69;5016744;28;45822;-69
2023/08/15 02:20:37;;;;;;;;;2.25;2.25;;;;;23.18;59.08;100939.38;4999061;28;45376;-69
2023/08/15 02:23:02;;;;;;;;;2.25;2.25;;;;;23.12;59.43;100937.56;5017079;28;45344;-69
2023/08/15 02:25:27;;;;;;;;;3.00;3.00;;;;;23.18;59.79;100944.81;5017139;28;45555;-69
2023/08/15 02:27:53;;;;;;;;;2.25;2.25;;;;;23.16;59.72;100960.47;5016251;28;51325;-69
2023/08/15 02:30:18;;;;;;;;;4.25;3.00;;;;;23.02;59.86;100929.91;5016224;28;45436;-69
2023/08/15 02:32:44;;;;;;;;;3.25;2.00;;;;;23.12;59.96;100934.84;5016697;28;45541;-68
2023/08/15 02:35:09;;;;;;;;;3.00;3.00;;;;;23.15;59.94;100939.84;5017150;28;45462;-69
2023/08/15 02:37:34;;;;;;;;;3.25;3.25;;;;;23.17;59.92;100945.84;5016554;28;46461;-70
2023/08/15 02:40:00;;;;;;;;;5.50;4.25;;;;;23.18;59.54;100944.81;5016325;28;45542;-69
2023/08/15 02:42:25;;;;;;;;;5.00;4.00;;;;;23.18;59.95;100944.81;5016634;28;45301;-69
2023/08/15 02:44:51;;;;;;;;;3.00;3.00;;;;;23.10;59.46;100930.72;5016553;28;45383;-69
2023/08/15 02:47:16;;;;;;;;;2.50;2.50;;;;;23.15;59.85;100933.56;5016121;28;46646;-69
2023/08/15 02:49:41;;;;;;;;;4.00;2.25;;;;;23.13;58.66;100930.25;5016700;28;45419;-69
2023/08/15 02:52:07;;;;;;;;;2.50;2.50;;;;;23.08;58.59;100938.25;5016418;28;45474;-69
2023/08/15 02:54:32;;;;;;;;;4.00;2.50;;;;;22.95;57.87;100921.00;5016349;28;45215;-69
2023/08/15 02:56:57;;;;;;;;;3.25;3.25;;;;;22.81;58.07;100902.31;5016033;28;45561;-69
2023/08/15 02:59:23;;;;;;;;;4.75;3.00;;;;;22.99;57.79;100945.78;5015993;28;52974;-68
2023/08/15 03:01:48;;;;;;;;;3.75;2.00;;;;;22.95;57.78;100933.75;5016227;28;45522;-70
2023/08/15 03:04:13;;;;;;;;;3.00;3.00;;;;;22.94;58.25;100923.94;5016418;28;45478;-69
2023/08/15 03:06:39;;;;;;;;;3.50;2.00;;;;;23.01;57.52;100946.41;5015940;28;57367;-69
2023/08/15 03:09:05;;;;;;;;;3.25;3.25;;;;;22.99;57.69;100934.94;5015939;28;45547;-69
2023/08/15 03:11:30;;;;;;;;;3.50;3.50;;;;;22.94;57.70;100927.50;5016525;28;45368;-69
2023/08/15 03:13:56;;;;;;;;;2.00;2.00;;;;;22.97;57.67;100934.34;5019547;28;45388;-69
2023/08/15 03:16:21;;;;;;;;;2.00;2.00;;;;;22.91;57.71;100927.09;5019340;28;45784;-69
2023/08/15 03:18:47;;;;;;;;;2.75;2.75;;;;;22.84;57.84;100910.91;5019272;28;45436;-69
2023/08/15 03:21:12;;;;;;;;;2.00;1.00;;;;;22.93;57.39;100927.72;5019863;28;45430;-70
2023/08/15 03:23:38;;;;;;;;;2.00;2.00;;;;;22.84;57.53;100920.91;5019837;28;45369;-69
2023/08/15 03:26:05;;;;;;;;;2.75;2.75;;;;;22.89;57.61;100940.88;5019500;28;46644;-68
2023/08/15 03:28:32;;;;;;;;;2.25;2.00;;;;;22.87;57.64;100942.16;5019378;28;45484;-69
2023/08/15 03:30:57;;;;;;;;;1.50;1.50;;;;;22.80;57.55;100925.06;5019361;28;45348;-69
2023/08/15 03:33:24;;;;;;;;;3.75;3.75;;;;;22.87;57.70;100943.00;5019734;28;45433;-70
2023/08/15 03:35:52;;;;;;;;;2.00;2.00;;;;;22.77;57.62;100940.72;5019249;28;47558;-69
2023/08/15 03:38:19;;;;;;;;;5.33;4.00;;;;;22.81;57.50;100954.66;5018942;28;45921;-71
2023/08/15 03:40:46;;;;;;;;;5.33;3.67;;;;;22.66;57.97;100938.72;5019459;28;45483;-69
2023/08/15 03:43:12;;;;;;;;;3.75;2.50;;;;;22.72;57.77;100959.53;5017712;28;45539;-69
2023/08/15 03:45:38;;;;;;;;;2.00;2.00;;;;;22.66;57.61;100943.31;5017555;28;47061;-70
2023/08/15 03:48:05;;;;;;;;;2.75;2.75;;;;;22.69;58.16;100962.69;5018344;28;45385;-68
2023/08/15 03:50:39;;;;;;;;;5.00;3.50;;;;;22.71;57.90;100965.16;5018059;28;45206;-69
2023/08/15 03:53:05;;;;;;;;;5.50;4.25;;;;;22.68;58.52;100971.84;5018442;28;45462;-70
2023/08/15 03:55:31;;;;;;;;;3.50;3.50;;;;;22.31;59.04;100913.91;5018967;28;46408;-69
2023/08/15 03:57:57;;;;;;;;;6.00;3.75;;;;;22.64;59.35;100992.31;5019132;28;45429;-70
2023/08/15 04:00:23;;;;;;;;;3.00;3.00;;;;;22.64;59.10;100996.91;5019024;28;45423;-69
2023/08/15 04:02:49;;;;;;;;;5.00;3.00;;;;;22.54;59.70;101008.19;5019582;28;45470;-69
2023/08/15 04:05:17;;;;;;;;;2.00;2.00;;;;;22.50;60.24;101017.81;5019056;28;46511;-69
2023/08/15 04:07:43;;;;;;;;;4.00;3.00;;;;;22.46;59.96;101027.44;5019153;28;45297;-71
2023/08/15 04:10:11;;;;;;;;;4.00;3.00;;;;;22.29;60.38;101015.41;5019040;28;45266;-69
2023/08/15 04:12:37;;;;;;;;;2.75;2.75;;;;;22.29;60.43;101015.41;5019306;28;45565;-69
2023/08/15 04:15:02;;;;;;;;;3.25;3.25;;;;;22.36;60.30;101027.03;5000474;28;47003;-70
2023/08/15 04:17:28;;;;;;;;;4.00;3.00;;;;;21.88;60.08;100954.28;5000830;28;46088;-68
2023/08/15 04:19:53;;;;;;;;;3.00;3.00;;;;;22.29;60.48;101034.38;5000817;28;45483;-68
2023/08/15 04:22:19;;;;;;;;;3.50;3.00;;;;;22.28;60.53;101038.94;5019260;28;45490;-70
2023/08/15 04:24:44;;;;;;;;;6.00;3.67;;;;;22.24;60.35;101031.47;5017875;28;45421;-69
2023/08/15 04:27:10;;;;;;;;;2.00;2.00;;;;;22.25;60.66;101041.25;5018875;28;45305;-69
2023/08/15 04:29:36;;;;;;;;;4.00;4.00;;;;;22.13;60.90;101025.66;5018749;28;45324;-84
2023/08/15 04:32:02;;;;;;;;;3.25;3.25;;;;;22.11;61.15;101030.47;5018882;28;45219;-70
2023/08/15 04:34:27;;;;;;;;;4.00;3.00;;;;;22.15;60.96;101041.69;5018638;28;46177;-69
2023/08/15 04:36:52;;;;;;;;;2.75;2.75;;;;;22.13;61.28;101039.19;5018655;28;45257;-70
2023/08/15 04:39:18;;;;;;;;;5.25;3.00;;;;;22.06;61.20;101024.03;5018799;28;45331;-69
2023/08/15 04:41:43;;;;;;;;;2.25;2.25;;;;;22.14;61.06;101035.44;5018855;28;45313;-69
2023/08/15 04:44:10;;;;;;;;;6.00;5.00;;;;;22.14;61.09;101035.44;5018148;28;47216;-70
2023/08/15 04:46:36;;;;;;;;;5.25;4.00;;;;;22.08;60.79;101028.19;5018351;28;45398;-70
2023/08/15 04:49:01;;;;;;;;;2.25;1.75;;;;;22.10;60.78;101033.38;5000477;28;45475;-69
2023/08/15 04:51:26;;;;;;;;;3.00;2.33;;;;;22.08;60.88;101041.72;5018192;28;45482;-69
2023/08/15 04:53:51;;;;;;;;;4.67;3.00;;;;;22.06;61.48;101049.22;5018403;28;47481;-68
2023/08/15 04:56:17;;;;;;;;;6.25;4.00;;;;;21.98;61.05;101033.16;5018180;28;45297;-69
2023/08/15 04:58:42;;;;;;;;;4.25;2.75;;;;;21.97;61.26;101033.38;5018042;28;45766;-69
2023/08/15 05:01:07;;;;;;;;;2.50;2.50;;;;;21.76;60.79;101010.09;5018446;28;45607;-69
2023/08/15 05:03:33;;;;;;;;;5.33;3.33;;;;;22.02;61.22;101058.75;5018349;28;45750;-69
2023/08/15 05:05:59;;;;;;;;;3.25;3.00;;;;;22.05;61.11;101057.56;4999918;28;45540;-69
2023/08/15 05:08:24;;;;;;;;;3.75;3.75;;;;;21.99;60.96;101048.34;5018442;28;45321;-69
2023/08/15 05:10:49;;;;;;;;;2.25;2.25;;;;;21.98;61.11;101054.81;5000384;28;45436;-70
2023/08/15 05:13:15;;;;;;;;;3.75;3.00;;;;;21.98;60.95;101051.28;5018177;28;45547;-69
2023/08/15 05:15:41;;;;;;;;;4.00;2.00;;;;;21.55;61.38;100984.09;5017142;28;56923;-69
2023/08/15 05:18:06;;;;;;;;;3.00;3.00;;;;;22.03;61.46;101055.03;5018185;28;45399;-69
2023/08/15 05:20:33;;;;;;;;;4.00;4.00;;;;;22.04;61.32;101056.72;5018091;28;45358;-69
2023/08/15 05:22:59;;;;;;;;;3.75;3.00;;;;;22.08;61.23;101057.13;5018057;28;46705;-69
2023/08/15 05:25:24;;;;;;;;;2.67;2.00;;;;;22.06;61.26;101054.63;5017732;28;45349;-69
2023/08/15 05:27:52;;;;;;;;;4.25;3.00;;;;;22.12;60.92;101053.78;5017933;28;45281;-70
2023/08/15 05:30:18;;;;;;;;;3.75;1.75;;;;;21.73;61.03;101005.94;5017590;28;45562;-71
2023/08/15 05:32:43;;;;;;;;;4.00;3.00;;;;;22.13;60.99;101060.03;5032937;28;46309;-70
2023/08/15 05:35:09;;;;;;;;;3.00;3.00;;;;;22.14;61.20;101051.69;5016607;28;45430;-69
2023/08/15 05:37:34;;;;;;;;;5.00;4.00;;;;;22.07;61.32;101036.53;5017757;28;45470;-69
2023/08/15 05:39:59;;;;;;;;;3.25;3.25;;;;;22.27;60.80;101066.25;5017695;28;45611;-70
2023/08/15 05:42:25;;;;;;;;;6.00;5.00;;;;;22.17;60.76;101051.25;4999875;28;48771;-70
2023/08/15 05:44:50;;;;;;;;;6.00;3.75;;;;;22.00;60.91;101024.81;5017510;28;45401;-68
2023/08/15 05:47:15;;;;;;;;;2.50;2.50;;;;;22.33;60.43;101071.63;5017761;28;45714;-69
2023/08/15 05:49:42;;;;;;;;;3.25;3.00;;;;;22.38;60.85;101069.13;5017787;28;45548;-69
2023/08/15 05:52:08;;;;;;;;;3.00;3.00;;;;;22.31;60.27;101056.66;5032870;28;47680;-69
2023/08/15 05:54:33;;;;;;;;;4.00;4.00;;;;;22.45;60.33;101071.81;5017387;28;45424;-69
2023/08/15 05:56:58;;;;;;;;;3.67;2.33;;;;;22.50;60.48;101077.41;4999238;28;47289;-70
2023/08/15 05:59:24;;;;;;;;;2.00;2.00;;;;;22.60;59.92;101091.34;5017684;28;45186;-69
2023/08/15 06:01:49;;;;;;;;;3.75;3.75;;;;;22.66;60.15;101093.22;5016938;28;52281;-69
2023/08/15 06:04:14;;;;;;;;;2.00;2.00;;;;;22.65;59.69;101086.13;5016358;28;68291;-67
2023/08/15 06:06:39;;;;;;;;;3.75;2.25;;;;;22.73;59.78;101098.59;5017474;28;45415;-70
2023/08/15 06:09:05;;;;;;;;;3.00;2.00;;;;;22.74;59.52;101084.81;4999229;28;50007;-71
2023/08/15 06:11:30;;;;;;;;;4.00;3.00;;;;;22.72;59.62;101086.09;5017049;28;45434;-70
2023/08/15 06:13:55;;;;;;;;;2.00;2.00;;;;;22.86;59.70;101105.88;4999268;28;45243;-69
2023/08/15 06:16:21;;;;;;;;;3.00;3.00;;;;;22.89;59.89;101114.41;5017306;28;45518;-69
2023/08/15 06:18:46;;;;;;;;;2.00;2.00;;;;;22.85;59.56;101101.50;5017292;28;45428;-69
2023/08/15 06:21:12;;;;;;;;;4.00;4.00;;;;;22.94;59.51;101121.88;5016795;28;59507;-69
2023/08/15 06:23:37;;;;;;;;;3.00;3.00;;;;;22.89;59.45;101116.28;5016730;28;45307;-70
2023/08/15 06:26:03;;;;;;;;;3.25;2.75;;;;;22.81;59.45;101106.47;5017193;28;45512;-69
2023/08/15 06:28:29;;;;;;;;;6.00;3.25;;;;;22.93;59.46;101131.06;5017092;28;45606;-69
2023/08/15 06:30:54;;;;;;;;;4.00;3.00;;;;;23.04;59.31;101146.66;5016459;28;47724;-70
2023/08/15 06:33:20;;;;;;;;;3.50;3.00;;;;;22.97;59.63;101118.72;5017085;28;45453;-68
2023/08/15 06:35:45;;;;;;;;;2.00;2.00;;;;;23.18;59.15;101145.53;5016569;28;57151;-69
2023/08/15 06:38:10;;;;;;;;;3.75;3.75;;;;;23.34;58.59;101149.63;5017336;28;45315;-69
2023/08/15 06:40:36;;;;;;;;;2.00;2.00;;;;;23.14;58.23;101083.81;5016653;28;47756;-70
2023/08/15 06:43:01;;;;;;;;;7.25;3.00;;;;;23.62;58.35;101141.09;5016974;28;45412;-68
2023/08/15 06:45:27;;;;;;;;;2.00;2.00;;;;;23.80;57.51;101149.31;4998801;28;45460;-70
2023/08/15 06:47:52;;;;;;;;;3.50;3.50;;;;;23.96;57.24;101154.19;5019250;28;45225;-70
2023/08/15 06:50:18;;;;;;;;;4.50;3.50;;;;;24.19;56.65;101160.88;5020449;28;45536;-69
2023/08/15 06:52:43;;;;;;;;;7.00;4.33;;;;;24.34;56.46;101169.56;5020389;28;45498;-69
2023/08/15 06:55:09;;;;;;;;;4.50;3.00;;;;;24.58;55.91;101168.66;5020320;28;45319;-69
2023/08/15 06:57:34;;;;;;;;;4.25;3.00;;;;;24.92;55.04;101169.13;5020181;28;45553;-68
2023/08/15 07:00:00;;;;;;;;;1.50;1.50;;;;;25.32;54.37;101168.63;5001951;28;46775;-69
2023/08/15 07:02:27;;;;;;;;;2.50;2.50;;;;;25.82;53.73;101169.13;5020063;28;45209;-69
2023/08/15 07:04:52;;;;;;;;;6.33;5.33;;;;;26.29;52.28;101164.56;5020002;28;45534;-68
2023/08/15 07:07:18;;;;;;;;;4.50;3.50;;;;;26.60;50.27;101159.81;5020151;28;45336;-69
2023/08/15 07:09:45;;;;;;;;;3.00;3.00;;;;;26.92;50.10;101166.50;5019065;28;65770;-68
2023/08/15 07:12:10;;;;;;;;;4.25;3.00;;;;;27.19;49.12;101168.69;5019864;28;46242;-68
2023/08/15 07:14:35;;;;;;;;;3.50;2.25;;;;;27.37;48.49;101179.41;5019767;28;45478;-69
2023/08/15 07:17:01;;;;;;;;;4.33;3.00;;;;;27.63;48.48;101182.63;5019466;28;45813;-68
2023/08/15 07:19:27;;;;;;;;;2.00;2.00;;;;;27.81;47.64;101174.19;5019573;28;45490;-68
2023/08/15 07:21:52;;;;;;;;;2.00;2.00;;;;;27.92;46.92;101177.94;5019825;28;45340;-69
2023/08/15 07:24:18;;;;;;;;;4.00;3.25;;;;;28.11;46.96;101174.69;5019856;28;45471;-69
2023/08/15 07:26:44;;;;;;;;;3.00;3.00;;;;;28.42;46.10;101175.16;5020142;28;45550;-68
2023/08/15 07:29:09;;;;;;;;;2.00;2.00;;;;;28.53;46.26;101176.16;5019600;28;46713;-69
2023/08/15 07:31:35;;;;;;;;;2.00;2.00;;;;;28.53;45.83;101157.00;5001653;28;45419;-68
2023/08/15 07:34:01;;;;;;;;;3.75;3.75;;;;;28.75;45.39;101166.06;5019993;28;45294;-69
2023/08/15 07:36:26;;;;;;;;;3.00;2.00;;;;;29.00;45.30;101173.78;5019628;28;45459;-70
2023/08/15 07:38:51;;;;;;;;;5.00;4.00;;;;;29.12;45.00;101187.34;5019552;28;47142;-69
2023/08/15 07:41:16;;;;;;;;;2.25;1.75;;;;;29.25;44.24;101182.28;5019539;28;45458;-71
2023/08/15 07:43:42;;;;;;;;;2.50;2.50;;;;;29.28;44.54;101183.69;5019197;28;59514;-68
2023/08/15 07:46:07;;;;;;;;;2.00;2.00;;;;;29.33;44.01;101168.13;5019646;28;45491;-69
2023/08/15 07:48:32;;;;;;;;;3.75;3.75;;;;;29.47;43.50;101182.28;5019190;28;59855;-69
2023/08/15 07:50:58;;;;;;;;;2.50;2.00;;;;;29.08;43.64;101143.22;5019005;28;45452;-69
2023/08/15 07:53:24;;;;;;;;;3.50;2.50;;;;;28.72;44.41;101126.34;4999631;28;45496;-69
2023/08/15 07:55:49;;;;;;;;;3.67;2.00;;;;;29.08;44.09;101187.03;5001698;28;45521;-69
2023/08/15 07:58:15;;;;;;;;;4.25;3.25;;;;;28.99;44.88;101183.91;5018076;28;45666;-70
2023/08/15 08:00:42;;;;;;;;;2.00;2.00;;;;;28.94;45.25;101183.00;5018756;28;45364;-69
2023/08/15 08:03:08;;;;;;;;;3.00;2.75;;;;;28.87;44.92;101171.44;5019050;28;45181;-69
2023/08/15 08:05:33;;;;;;;;;2.50;2.25;;;;;28.83;44.51;101173.81;5019445;28;45246;-68
2023/08/15 08:07:59;;;;;;;;;2.25;1.25;;;;;28.89;44.49;101177.47;5018903;28;45568;-69
2023/08/15 08:10:24;;;;;;;;;5.00;2.50;;;;;28.82;44.51;101169.41;5018938;28;45310;-69
2023/08/15 08:12:49;;;;;;;;;3.50;3.00;;;;;28.77;44.76;101181.13;5019411;28;45234;-69
2023/08/15 08:15:15;;;;;;;;;6.75;3.75;;;;;28.74;45.17;101170.69;5018806;28;45563;-69
2023/08/15 08:17:41;;;;;;;;;1.00;1.00;;;;;28.67;44.86;101158.31;5018809;28;46844;-69
2023/08/15 08:20:12;;;;;;;;;4.00;3.00;;;;;28.65;44.92;101158.56;5018422;28;45474;-68
2023/08/15 08:22:38;;;;;;;;;2.33;2.33;;;;;28.61;44.76;101160.13;5019098;28;45412;-69
2023/08/15 08:25:13;;;;;;;;;3.00;2.00;;;;;28.64;45.19;101165.09;5019040;28;45284;-69
2023/08/15 08:27:38;;;;;;;;;1.25;1.25;;;;;28.54;45.49;101154.03;5018515;28;46505;-69
2023/08/15 08:30:06;;;;;;;;;3.00;3.00;;;;;28.60;45.35;101163.09;5018484;28;45501;-69
2023/08/15 08:32:31;;;;;;;;;4.00;3.00;;;;;28.43;44.65;101141.28;5000836;28;45326;-68
2023/08/15 08:34:57;;;;;;;;;0.75;0.75;;;;;28.52;45.13;101156.19;5018761;28;45544;-72
2023/08/15 08:37:22;;;;;;;;;3.00;2.00;;;;;28.53;45.01;101163.31;5018564;28;46700;-70
2023/08/15 08:39:47;;;;;;;;;2.25;1.00;;;;;28.40;45.10;101139.03;5018573;28;45375;-70
2023/08/15 08:42:13;;;;;;;;;3.00;3.00;;;;;28.48;44.67;101155.88;5018952;28;45392;-69
2023/08/15 08:44:39;;;;;;;;;3.00;2.67;;;;;28.47;44.90;101151.47;5018420;28;45643;-73
2023/08/15 08:47:06;;;;;;;;;5.00;3.25;;;;;28.44;45.33;101148.44;5018389;28;45725;-69
2023/08/15 08:49:31;;;;;;;;;2.50;1.25;;;;;28.46;45.36;101154.47;4983792;28;45456;-69
2023/08/15 08:51:59;;;;;;;;;2.00;2.00;;;;;28.47;45.51;101153.38;5018196;28;45304;-68
2023/08/15 08:54:24;;;;;;;;;2.00;2.00;;;;;28.46;45.02;101163.50;5018305;28;45376;-69
2023/08/15 08:56:53;;;;;;;;;7.00;5.00;;;;;27.94;44.86;101067.28;5018099;28;46561;-68
2023/08/15 08:59:22;;;;;;;;;2.75;2.00;;;;;28.50;45.19;101158.34;5018022;28;45379;-69
2023/08/15 09:01:48;;;;;;;;;2.75;2.75;;;;;28.47;44.44;101148.75;5018263;28;45345;-69
2023/08/15 09:04:13;;;;;;;;;3.75;3.00;;;;;28.52;44.31;101156.19;5018295;28;45253;-69
2023/08/15 09:06:39;;;;;;;;;2.00;2.00;;;;;28.21;44.42;101102.94;5018125;28;46923;-71
2023/08/15 09:09:04;;;;;;;;;3.50;1.50;;;;;28.53;44.13;101157.84;5017896;28;45495;-69
2023/08/15 09:11:36;;;;;;;;;3.00;3.00;;;;;28.55;44.33;101166.63;5017791;28;45400;-69
2023/08/15 09:14:03;;;;;;;;;2.00;2.00;;;;;28.54;43.62;101156.75;5018261;28;45518;-70
2023/08/15 09:16:30;;;;;;;;;3.00;2.00;;;;;28.54;43.92;101166.88;5017834;28;45506;-68
2023/08/15 09:18:56;;;;;;;;;4.50;2.25;;;;;28.54;43.91;101164.13;5017864;28;45478;-69
2023/08/15 09:21:23;;;;;;;;;2.50;2.00;;;;;28.55;43.28;101157.56;5018053;28;45557;-69
2023/08/15 09:23:51;;;;;;;;;4.50;3.00;;;;;28.47;43.44;101150.66;5018059;28;45582;-69
2023/08/15 09:26:16;;;;;;;;;4.00;2.50;;;;;28.57;43.29;101169.91;5017665;28;46501;-69
2023/08/15 09:28:43;;;;;;;;;2.00;2.00;;;;;28.59;43.34;101150.50;5017791;28;45304;-69
2023/08/15 09:31:10;;;;;;;;;2.50;2.50;;;;;28.69;42.88;101156.97;5017584;28;45176;-71
2023/08/15 09:33:38;;;;;;;;;3.75;2.75;;;;;28.89;42.92;101172.84;4999790;28;45546;-68
2023/08/15 09:36:05;;;;;;;;;4.25;2.25;;;;;29.04;42.84;101166.72;5017645;28;45810;-68
2023/08/15 09:38:31;;;;;;;;;2.00;2.00;;;;;28.93;42.49;101124.72;5017576;28;45505;-67
2023/08/15 09:40:57;;;;;;;;;4.50;2.00;;;;;29.00;41.77;101121.75;5017700;28;45304;-68
2023/08/15 09:43:22;;;;;;;;;2.25;2.25;;;;;29.30;41.91;101165.91;5017657;28;45252;-68
2023/08/15 09:45:49;;;;;;;;;2.50;2.50;;;;;29.46;41.73;101171.56;5017358;28;46374;-69
2023/08/15 09:48:19;;;;;;;;;3.00;3.00;;;;;29.28;41.54;101165.34;5017051;28;45273;-69
2023/08/15 09:50:46;;;;;;;;;2.25;2.25;;;;;29.11;42.51;101169.25;5017432;28;45522;-69
2023/08/15 09:53:13;;;;;;;;;5.00;4.00;;;;;29.00;42.38;101173.78;5017787;28;45642;-70
2023/08/15 09:55:39;;;;;;;;;3.50;3.50;;;;;28.96;42.59;101172.63;5017153;28;46640;-69
2023/08/15 09:58:05;;;;;;;;;1.00;1.00;;;;;28.86;43.37;101167.06;5017325;28;45318;-69
2023/08/15 10:00:31;;;;;;;;;3.00;2.00;;;;;28.68;43.39;101154.47;5017245;28;45317;-68
2023/08/15 10:03:01;;;;;;;;;2.00;2.00;;;;;28.54;43.92;101158.66;5017686;28;45518;-69
2023/08/15 10:05:33;;;;;;;;;4.25;2.50;;;;;28.51;44.21;101156.44;5016994;28;45979;-68
2023/08/15 10:07:59;;;;;;;;;2.00;2.00;;;;;28.59;44.27;101173.22;5017466;28;45444;-69
2023/08/15 10:10:26;;;;;;;;;2.50;2.50;;;;;28.50;43.56;101166.56;5017038;28;45412;-70
2023/08/15 10:12:54;;;;;;;;;2.00;2.00;;;;;28.07;43.99;101127.09;5017480;28;45304;-69
2023/08/15 10:15:21;;;;;;;;;2.50;2.50;;;;;28.10;43.57;101151.19;5016510;28;47119;-70
2023/08/15 10:17:47;;;;;;;;;4.75;3.00;;;;;27.95;44.05;101145.47;5017215;28;45196;-69
2023/08/15 10:20:17;;;;;;;;;2.50;2.50;;;;;27.97;44.12;101165.19;5016932;28;45458;-68
2023/08/15 10:22:42;;;;;;;;;3.00;2.00;;;;;28.03;44.77;101169.66;5016404;28;45470;-69
2023/08/15 10:25:23;;;;;;;;;2.00;1.75;;;;;27.95;44.78;101167.34;5016760;28;46488;-68
2023/08/15 10:27:51;;;;;;;;;4.75;3.75;;;;;27.86;44.98;101163.38;5016978;28;45289;-69
2023/08/15 10:30:41;;;;;;;;;3.00;2.00;;;;;27.77;44.86;101170.31;5016857;28;45321;-68
2023/08/15 10:33:15;;;;;;;;;2.75;2.75;;;;;27.75;45.21;101173.28;5017339;28;45506;-69
2023/08/15 10:35:50;;;;;;;;;2.00;2.00;;;;;27.62;45.04;101180.94;4998792;28;48677;-69
2023/08/15 10:38:18;;;;;;;;;1.75;1.50;;;;;27.58;44.83;101177.88;5016684;28;45543;-69
2023/08/15 10:40:44;;;;;;;;;2.50;2.50;;;;;27.47;45.99;101178.78;5016895;28;45463;-68
2023/08/15 10:43:15;;;;;;;;;4.00;3.00;;;;;27.48;45.87;101178.53;5016614;28;45307;-68
2023/08/15 10:45:45;;;;;;;;;3.00;3.00;;;;;27.42;46.05;101159.53;5016036;28;46641;-69
2023/08/15 10:48:11;;;;;;;;;3.00;2.00;;;;;27.51;45.40;101183.50;5016604;28;45526;-68
2023/08/15 10:50:43;;;;;;;;;3.50;3.25;;;;;27.49;46.05;101188.38;4998761;28;45370;-68
2023/08/15 10:53:08;;;;;;;;;4.00;3.00;;;;;27.49;46.00;101172.00;4998636;28;45322;-69
2023/08/15 10:55:36;;;;;;;;;2.75;2.75;;;;;27.51;45.85;101164.38;4998378;28;47169;-69
2023/08/15 10:58:04;;;;;;;;;2.00;2.00;;;;;27.67;45.61;101192.00;5016196;28;45455;-69
2023/08/15 11:00:31;;;;;;;;;2.75;2.75;;;;;27.67;45.99;101181.91;5016195;28;45349;-70
2023/08/15 11:02:57;;;;;;;;;2.00;2.00;;;;;27.69;45.24;101185.22;5016567;28;45187;-68
2023/08/15 11:05:22;;;;;;;;;2.50;2.50;;;;;27.63;45.02;101179.88;5016075;28;46382;-69
2023/08/15 11:07:48;;;;;;;;;1.00;1.00;;;;;27.60;45.14;101186.66;5016126;28;45426;-69
2023/08/15 11:10:13;;;;;;;;;2.00;2.00;;;;;27.63;45.11;101190.81;5016406;28;45480;-69
2023/08/15 11:12:50;;;;;;;;;4.25;4.25;;;;;27.46;45.44;101169.75;5016544;28;45436;-69
2023/08/15 11:15:16;;;;;;;;;4.00;3.00;;;;;27.45;46.02;101170.84;5015481;28;46483;-69
2023/08/15 11:17:46;;;;;;;;;4.00;3.00;;;;;27.51;45.92;101194.41;5016134;28;45316;-68
2023/08/15 11:20:11;;;;;;;;;6.00;4.00;;;;;27.27;46.06;101168.31;5016217;28;45395;-69